createdAt,value
2019-06-27T00:03:57.303Z,8.63
2019-06-27T00:08:53.220Z,7.77
2019-06-27T00:13:49.154Z,7.90
2019-06-27T00:18:45.076Z,8.40
2019-06-27T00:23:41.985Z,8.67
2019-06-27T00:28:38.025Z,7.67
2019-06-27T00:33:37.993Z,6.93
2019-06-27T00:38:33.882Z,8.73
2019-06-27T00:43:29.837Z,7.43
2019-06-27T00:48:25.845Z,7.47
2019-06-27T00:53:21.812Z,9.10
2019-06-27T00:58:17.832Z,7.37
2019-06-27T01:03:27.085Z,8.37
2019-06-27T01:08:23.101Z,7.83
2019-06-27T01:13:19.030Z,8.10
2019-06-27T01:18:14.977Z,8.20
2019-06-27T01:23:10.911Z,8.70
2019-06-27T01:28:06.830Z,9.00
2019-06-27T01:33:07.818Z,8.80
2019-06-27T01:38:03.841Z,8.00
2019-06-27T01:42:59.775Z,7.50
2019-06-27T01:47:55.802Z,6.37
2019-06-27T01:52:51.721Z,7.60
2019-06-27T01:57:47.652Z,7.10
2019-06-27T02:02:43.581Z,6.60
2019-06-27T02:07:39.509Z,6.03
2019-06-27T02:12:35.718Z,5.90
2019-06-27T02:17:31.639Z,5.47
2019-06-27T02:22:27.565Z,4.27
2019-06-27T02:27:23.586Z,6.47
2019-06-27T02:32:19.508Z,5.87
2019-06-27T02:37:15.473Z,5.40
2019-06-27T02:42:11.390Z,4.53
2019-06-27T02:47:07.315Z,5.10
2019-06-27T02:52:03.235Z,4.50
2019-06-27T02:56:59.254Z,4.70
2019-06-27T03:01:55.201Z,4.00
2019-06-27T03:06:51.214Z,4.60
2019-06-27T03:11:47.134Z,3.93
2019-06-27T03:16:43.093Z,4.80
2019-06-27T03:21:38.984Z,4.17
2019-06-27T03:26:34.911Z,4.53
2019-06-27T03:31:30.832Z,3.57
2019-06-27T03:36:26.884Z,3.50
2019-06-27T03:41:22.806Z,3.67
2019-06-27T03:46:18.732Z,3.83
2019-06-27T03:51:14.690Z,3.90
2019-06-27T03:56:10.610Z,4.03
2019-06-27T04:01:06.549Z,4.90
2019-06-27T04:06:02.559Z,4.40
2019-06-27T04:10:58.622Z,4.60
2019-06-27T04:15:54.586Z,4.63
2019-06-27T04:20:50.526Z,5.33
2019-06-27T04:25:46.841Z,5.33
2019-06-27T04:30:42.867Z,5.00
2019-06-27T04:35:38.835Z,5.00
2019-06-27T04:40:34.760Z,4.50
2019-06-27T04:45:30.683Z,5.20
2019-06-27T04:50:26.612Z,5.77
2019-06-27T04:55:22.534Z,6.50
2019-06-27T05:00:28.953Z,6.57
2019-06-27T05:05:24.876Z,5.30
2019-06-27T05:10:20.801Z,5.73
2019-06-27T05:15:16.726Z,5.47
2019-06-27T05:20:12.659Z,5.30
2019-06-27T05:25:08.682Z,5.00
2019-06-27T05:30:10.104Z,5.60
2019-06-27T05:35:04.031Z,6.10
2019-06-27T05:40:00.921Z,6.97
2019-06-27T05:44:56.943Z,6.50
2019-06-27T05:49:52.867Z,5.07
2019-06-27T05:54:48.788Z,6.50
2019-06-27T05:59:44.745Z,6.60
2019-06-27T06:04:40.739Z,6.40
2019-06-27T06:09:36.660Z,4.47
2019-06-27T06:14:32.587Z,5.47
2019-06-27T06:19:28.509Z,5.43
2019-06-27T06:24:24.433Z,4.77
2019-06-27T06:29:20.376Z,5.20
2019-06-27T06:34:16.284Z,5.30
2019-06-27T06:39:12.213Z,5.43
2019-06-27T06:44:08.245Z,4.60
2019-06-27T06:49:04.212Z,4.73
2019-06-27T06:54:00.254Z,5.40
2019-06-27T06:58:56.185Z,5.07
2019-06-27T07:03:52.804Z,4.60
2019-06-27T07:08:48.785Z,4.70
2019-06-27T07:13:44.712Z,4.10
2019-06-27T07:18:40.671Z,5.53
2019-06-27T07:23:36.614Z,4.20
2019-06-27T07:28:32.528Z,6.17
2019-06-27T07:33:31.626Z,5.10
2019-06-27T07:38:27.735Z,5.40
2019-06-27T07:43:23.659Z,5.93
2019-06-27T07:48:19.613Z,5.23
2019-06-27T07:53:15.713Z,5.87
2019-06-27T07:58:11.605Z,5.60
2019-06-27T08:03:16.003Z,4.40
2019-06-27T08:08:12.025Z,5.37
2019-06-27T08:13:08.045Z,6.17
2019-06-27T08:18:04.024Z,4.87
2019-06-27T08:22:59.945Z,6.90
2019-06-27T08:27:55.951Z,6.23
2019-06-27T08:32:53.969Z,6.63
2019-06-27T08:37:49.903Z,5.73
2019-06-27T08:42:46.078Z,4.80
2019-06-27T08:47:42.006Z,4.50
2019-06-27T08:52:37.928Z,5.07
2019-06-27T08:57:33.965Z,4.20
2019-06-27T09:02:29.886Z,4.70
2019-06-27T09:07:25.804Z,6.00
2019-06-27T09:12:21.732Z,3.80
2019-06-27T09:17:17.663Z,3.80
2019-06-27T09:22:13.589Z,5.47
2019-06-27T09:27:09.534Z,4.83
2019-06-27T09:32:05.574Z,3.60
2019-06-27T09:37:02.616Z,5.70
2019-06-27T09:41:58.641Z,5.60
2019-06-27T09:46:54.859Z,5.10
2019-06-27T09:51:50.780Z,4.50
2019-06-27T09:56:46.804Z,3.93
2019-06-27T10:01:42.734Z,4.10
2019-06-27T10:06:38.682Z,4.50
2019-06-27T10:11:34.598Z,4.77
2019-06-27T10:16:30.523Z,4.40
2019-06-27T10:21:26.443Z,4.10
2019-06-27T10:26:22.364Z,3.77
2019-06-27T10:31:18.283Z,3.33
2019-06-27T10:36:14.234Z,4.20
2019-06-27T10:41:10.159Z,3.53
2019-06-27T10:46:06.105Z,3.43
2019-06-27T10:51:02.111Z,2.90
2019-06-27T10:55:58.463Z,3.20
2019-06-27T11:00:54.381Z,3.50
2019-06-27T11:05:50.311Z,3.90
2019-06-27T11:10:48.257Z,3.03
2019-06-27T11:15:49.381Z,3.40
2019-06-27T11:20:45.473Z,2.50
2019-06-27T11:25:41.429Z,2.23
2019-06-27T11:30:47.392Z,2.40
2019-06-27T11:35:43.410Z,3.03
2019-06-27T11:40:39.354Z,2.23
2019-06-27T11:45:35.363Z,2.30
2019-06-27T11:50:31.393Z,2.40
2019-06-27T11:55:27.469Z,2.80
2019-06-27T12:00:23.544Z,2.67
2019-06-27T12:05:19.489Z,2.33
2019-06-27T12:10:15.811Z,2.50
2019-06-27T12:15:11.766Z,1.63
2019-06-27T12:20:08.720Z,2.37
2019-06-27T12:25:04.930Z,2.13
2019-06-27T12:30:00.850Z,1.87
2019-06-27T12:34:56.835Z,2.40
2019-06-27T12:39:55.788Z,2.37
2019-06-27T12:44:52.744Z,2.73
2019-06-27T12:50:01.255Z,2.03
2019-06-27T12:54:46.594Z,2.17
2019-06-27T12:59:42.543Z,2.50
2019-06-27T13:04:38.542Z,2.00
2019-06-27T13:09:34.515Z,2.00
2019-06-27T13:14:30.454Z,2.40
2019-06-27T13:19:26.578Z,2.17
2019-06-27T13:24:22.601Z,2.33
2019-06-27T13:29:18.525Z,2.87
2019-06-27T13:34:14.445Z,2.23
2019-06-27T13:39:10.376Z,2.03
2019-06-27T13:44:06.304Z,2.57
2019-06-27T13:49:02.984Z,2.60
2019-06-27T13:53:59.184Z,3.20
2019-06-27T13:58:55.143Z,2.80
2019-06-27T14:03:51.793Z,1.83
2019-06-27T14:08:47.789Z,2.63
2019-06-27T14:13:43.718Z,2.23
2019-06-27T14:18:39.784Z,2.20
2019-06-27T14:23:35.709Z,2.90
2019-06-27T14:28:31.639Z,2.60
2019-06-27T14:33:29.374Z,1.93
2019-06-27T14:38:25.354Z,2.70
2019-06-27T14:43:21.788Z,2.40
2019-06-27T14:48:17.782Z,2.43
2019-06-27T14:53:14.122Z,2.03
2019-06-27T14:58:10.059Z,2.73
2019-06-27T15:03:09.381Z,2.20
2019-06-27T15:08:05.509Z,2.30
2019-06-27T15:13:01.441Z,2.30
2019-06-27T15:17:57.477Z,2.60
2019-06-27T15:22:53.417Z,2.43
2019-06-27T15:27:49.318Z,2.30
2019-06-27T15:32:45.247Z,2.90
2019-06-27T15:37:41.169Z,2.17
2019-06-27T15:42:37.200Z,2.63
2019-06-27T15:47:33.239Z,2.53
2019-06-27T15:52:29.258Z,2.83
2019-06-27T15:57:25.182Z,2.07
2019-06-27T16:02:21.196Z,2.10
2019-06-27T16:07:17.126Z,2.53
2019-06-27T16:12:13.293Z,2.87
2019-06-27T16:17:09.263Z,1.97
2019-06-27T16:22:05.200Z,1.97
2019-06-27T16:27:01.190Z,1.80
2019-06-27T16:31:57.119Z,2.60
2019-06-27T16:36:53.062Z,2.30
2019-06-27T16:41:49.092Z,2.33
2019-06-27T16:46:45.029Z,2.17
2019-06-27T16:51:40.965Z,2.17
2019-06-27T16:56:36.917Z,1.93
2019-06-27T17:01:32.838Z,2.23
2019-06-27T17:06:41.595Z,2.07
2019-06-27T17:11:26.708Z,2.00
2019-06-27T17:16:22.724Z,2.03
2019-06-27T17:21:18.652Z,1.67
2019-06-27T17:26:14.572Z,2.23
2019-06-27T17:31:10.509Z,1.60
2019-06-27T17:36:06.434Z,2.13
2019-06-27T17:41:02.537Z,1.83
2019-06-27T17:45:58.485Z,2.03
2019-06-27T17:50:54.620Z,1.93
2019-06-27T17:55:50.532Z,1.93
2019-06-27T18:00:46.458Z,1.80
2019-06-27T18:05:42.380Z,2.13
2019-06-27T18:10:38.301Z,1.77
2019-06-27T18:15:34.327Z,1.60
2019-06-27T18:20:30.258Z,1.60
2019-06-27T18:25:26.180Z,1.90
2019-06-27T18:30:22.104Z,2.13
2019-06-27T18:35:18.185Z,1.67
2019-06-27T18:40:15.051Z,1.60
2019-06-27T18:45:11.788Z,1.40
2019-06-27T18:50:08.115Z,1.67
2019-06-27T18:55:04.438Z,1.50
2019-06-27T19:00:00.360Z,1.63
2019-06-27T19:04:56.267Z,1.60
2019-06-27T19:09:52.189Z,1.90
2019-06-27T19:14:48.115Z,2.07
2019-06-27T19:19:48.975Z,1.97
2019-06-27T19:24:46.813Z,2.33
2019-06-27T19:29:42.741Z,2.27
2019-06-27T19:34:39.477Z,2.33
2019-06-27T19:39:35.396Z,2.00
2019-06-27T19:44:31.330Z,3.37
2019-06-27T19:49:27.257Z,2.67
2019-06-27T19:54:23.186Z,2.53
2019-06-27T19:59:19.108Z,3.40
2019-06-27T20:04:15.031Z,2.60
2019-06-27T20:09:11.067Z,3.10
2019-06-27T20:14:07.054Z,3.77
2019-06-27T20:19:05.823Z,4.63
2019-06-27T20:24:00.805Z,3.43
2019-06-27T20:28:56.754Z,3.03
2019-06-27T20:33:53.563Z,3.07
2019-06-27T20:38:49.548Z,3.10
2019-06-27T20:43:45.584Z,3.47
2019-06-27T20:48:41.512Z,3.10
2019-06-27T20:53:37.451Z,4.33
2019-06-27T20:58:33.386Z,3.63
2019-06-27T21:03:32.731Z,3.30
2019-06-27T21:08:28.727Z,4.30
2019-06-27T21:13:24.663Z,4.60
2019-06-27T21:18:20.724Z,5.73
2019-06-27T21:23:16.659Z,4.50
2019-06-27T21:28:12.581Z,4.60
2019-06-27T21:33:13.054Z,4.23
2019-06-27T21:38:11.006Z,4.20
2019-06-27T21:43:07.305Z,4.07
2019-06-27T21:48:03.329Z,4.43
2019-06-27T21:52:59.253Z,4.20
2019-06-27T21:57:55.177Z,4.53
2019-06-27T22:02:53.041Z,4.20
2019-06-27T22:07:49.072Z,4.67
2019-06-27T22:12:45.085Z,4.30
2019-06-27T22:17:41.015Z,6.93
2019-06-27T22:22:36.943Z,5.30
2019-06-27T22:27:32.870Z,5.70
2019-06-27T22:32:28.791Z,4.70
2019-06-27T22:37:25.831Z,5.00
2019-06-27T22:42:40.962Z,5.13
2019-06-27T22:47:55.425Z,5.40
2019-06-27T22:53:05.294Z,5.33
2019-06-27T22:58:01.365Z,6.10
2019-06-27T23:03:03.462Z,5.93
2019-06-27T23:08:01.271Z,6.80
2019-06-27T23:12:57.276Z,7.00
2019-06-27T23:17:53.269Z,6.80
2019-06-27T23:22:49.198Z,6.17
2019-06-27T23:27:45.869Z,6.63
2019-06-27T23:32:41.949Z,5.90
2019-06-27T23:37:38.054Z,6.47
2019-06-27T23:42:34.018Z,6.57
2019-06-27T23:47:29.992Z,7.23
2019-06-27T23:52:26.017Z,7.00
2019-06-27T23:57:21.951Z,7.60
